createdAt,value
2023-04-09T00:00:12.970Z,69.14
2023-04-09T00:02:39.849Z,69.08
2023-04-09T00:05:07.644Z,69.02
2023-04-09T00:07:34.495Z,69.07
2023-04-09T00:10:01.620Z,69.01
2023-04-09T00:12:30.434Z,69.33
2023-04-09T00:14:57.573Z,69.21
2023-04-09T00:17:24.330Z,69.50
2023-04-09T00:19:51.205Z,69.45
2023-04-09T00:22:18.000Z,69.60
2023-04-09T00:24:45.073Z,69.21
2023-04-09T00:27:11.816Z,69.65
2023-04-09T00:29:38.609Z,69.82
2023-04-09T00:32:05.895Z,70.03
2023-04-09T00:34:32.805Z,69.96
2023-04-09T00:36:59.587Z,70.13
2023-04-09T00:39:27.142Z,70.03
2023-04-09T00:42:02.726Z,70.04
2023-04-09T00:44:30.178Z,69.64
2023-04-09T00:46:59.035Z,69.82
2023-04-09T00:49:26.630Z,70.00
2023-04-09T00:51:53.968Z,70.33
2023-04-09T00:54:20.841Z,70.14
2023-04-09T00:56:47.948Z,69.33
2023-04-09T00:59:15.139Z,69.44
2023-04-09T01:01:41.860Z,70.05
2023-04-09T01:04:08.868Z,70.41
2023-04-09T01:06:47.569Z,69.75
2023-04-09T01:09:19.948Z,69.92
2023-04-09T01:12:07.945Z,69.94
2023-04-09T01:14:49.910Z,70.03
2023-04-09T01:17:25.266Z,70.17
2023-04-09T01:19:59.841Z,70.15
2023-04-09T01:22:41.681Z,70.30
2023-04-09T01:25:41.020Z,70.43
2023-04-09T01:28:17.924Z,70.18
2023-04-09T01:30:47.609Z,70.47
2023-04-09T01:33:15.667Z,70.55
2023-04-09T01:35:44.239Z,70.57
2023-04-09T01:38:11.544Z,70.49
2023-04-09T01:40:39.029Z,70.25
2023-04-09T01:43:07.152Z,70.35
2023-04-09T01:45:34.552Z,70.52
2023-04-09T01:48:01.502Z,70.23
2023-04-09T01:50:28.504Z,70.41
2023-04-09T01:52:55.415Z,70.56
2023-04-09T01:55:22.140Z,70.34
2023-04-09T01:57:48.978Z,70.37
2023-04-09T02:00:15.895Z,70.56
2023-04-09T02:03:11.248Z,70.60
2023-04-09T02:05:42.602Z,70.74
2023-04-09T02:08:11.339Z,71.00
2023-04-09T02:10:39.687Z,70.93
2023-04-09T02:13:08.519Z,70.85
2023-04-09T02:15:36.957Z,70.91
2023-04-09T02:18:03.838Z,71.28
2023-04-09T02:20:30.870Z,71.38
2023-04-09T02:22:57.621Z,71.19
2023-04-09T02:25:25.128Z,71.51
2023-04-09T02:27:51.812Z,71.62
2023-04-09T02:30:18.533Z,71.78
2023-04-09T02:32:45.380Z,72.01
2023-04-09T02:35:12.102Z,71.86
2023-04-09T02:37:38.844Z,72.21
2023-04-09T02:40:05.980Z,72.44
2023-04-09T02:42:32.701Z,72.76
2023-04-09T02:44:59.430Z,72.64
2023-04-09T02:47:27.417Z,72.65
2023-04-09T02:49:54.160Z,72.54
2023-04-09T02:52:24.503Z,72.63
2023-04-09T02:54:51.345Z,72.76
2023-04-09T02:57:18.348Z,72.71
2023-04-09T02:59:45.740Z,72.80
2023-04-09T03:02:13.378Z,72.58
2023-04-09T03:04:40.314Z,72.78
2023-04-09T03:07:07.393Z,72.39
2023-04-09T03:09:34.101Z,72.16
2023-04-09T03:12:02.164Z,72.13
2023-04-09T03:14:30.330Z,72.52
2023-04-09T03:16:56.993Z,72.53
2023-04-09T03:19:23.926Z,72.38
2023-04-09T03:21:51.509Z,72.32
2023-04-09T03:24:22.283Z,72.45
2023-04-09T03:26:49.848Z,72.59
2023-04-09T03:29:16.664Z,72.47
2023-04-09T03:31:44.051Z,72.54
2023-04-09T03:34:11.258Z,72.61
2023-04-09T03:36:37.970Z,72.77
2023-04-09T03:39:10.534Z,72.65
2023-04-09T03:41:41.458Z,72.36
2023-04-09T03:44:11.986Z,72.48
2023-04-09T03:46:58.867Z,72.40
2023-04-09T03:49:26.328Z,72.36
2023-04-09T03:51:56.209Z,72.74
2023-04-09T03:54:24.625Z,72.86
2023-04-09T03:56:52.397Z,73.07
2023-04-09T03:59:23.478Z,73.14
2023-04-09T04:01:50.376Z,73.07
2023-04-09T04:04:17.226Z,73.12
2023-04-09T04:06:48.312Z,73.17
2023-04-09T04:09:37.568Z,73.13
2023-04-09T04:12:09.090Z,73.30
2023-04-09T04:14:48.384Z,73.16
2023-04-09T04:17:28.228Z,73.19
2023-04-09T04:19:55.626Z,73.18
2023-04-09T04:22:25.957Z,73.58
2023-04-09T04:24:55.516Z,73.72
2023-04-09T04:27:23.165Z,73.64
2023-04-09T04:29:50.656Z,73.69
2023-04-09T04:32:36.096Z,73.94
2023-04-09T04:35:07.413Z,73.77
2023-04-09T04:37:34.860Z,73.65
2023-04-09T04:40:03.256Z,73.73
2023-04-09T04:42:32.457Z,73.92
2023-04-09T04:45:01.647Z,73.87
2023-04-09T04:47:45.872Z,74.14
2023-04-09T04:50:13.886Z,73.98
2023-04-09T04:52:52.832Z,74.25
2023-04-09T04:55:21.696Z,74.08
2023-04-09T04:57:50.987Z,74.00
2023-04-09T05:00:19.037Z,73.96
2023-04-09T05:02:46.854Z,73.87
2023-04-09T05:05:36.552Z,73.86
2023-04-09T05:08:03.412Z,73.69
2023-04-09T05:10:30.244Z,73.94
2023-04-09T05:12:58.440Z,73.76
2023-04-09T05:15:31.621Z,73.74
2023-04-09T05:17:59.745Z,73.47
2023-04-09T05:20:27.848Z,73.29
2023-04-09T05:23:14.739Z,73.14
2023-04-09T05:25:45.837Z,72.96
2023-04-09T05:28:21.228Z,72.90
2023-04-09T05:30:53.195Z,72.70
2023-04-09T05:33:19.918Z,72.71
2023-04-09T05:35:46.728Z,72.50
2023-04-09T05:38:14.127Z,72.46
2023-04-09T05:40:45.181Z,72.57
2023-04-09T05:43:13.202Z,72.27
2023-04-09T05:45:43.041Z,72.13
2023-04-09T05:48:09.878Z,71.80
2023-04-09T05:50:51.160Z,71.85
2023-04-09T05:53:21.114Z,71.56
2023-04-09T05:55:49.534Z,71.15
2023-04-09T05:58:18.886Z,70.38
2023-04-09T06:00:46.876Z,69.96
2023-04-09T06:03:13.747Z,69.99
2023-04-09T06:05:40.667Z,69.95
2023-04-09T06:08:07.523Z,69.34
2023-04-09T06:10:34.555Z,69.45
2023-04-09T06:13:02.019Z,68.60
2023-04-09T06:15:28.836Z,68.25
2023-04-09T06:17:57.456Z,68.35
2023-04-09T06:20:25.630Z,68.14
2023-04-09T06:22:52.404Z,68.13
2023-04-09T06:25:19.182Z,68.08
2023-04-09T06:27:46.194Z,68.27
2023-04-09T06:30:13.086Z,68.62
2023-04-09T06:32:51.006Z,68.69
2023-04-09T06:35:20.766Z,68.52
2023-04-09T06:37:47.466Z,69.02
2023-04-09T06:40:14.717Z,68.68
2023-04-09T06:42:41.667Z,68.60
2023-04-09T06:45:19.726Z,68.49
2023-04-09T06:47:46.981Z,68.24
2023-04-09T06:50:13.723Z,68.38
2023-04-09T06:52:40.650Z,68.51
2023-04-09T06:55:07.639Z,68.10
2023-04-09T06:57:34.375Z,67.52
2023-04-09T07:00:01.087Z,67.29
2023-04-09T07:02:28.193Z,67.16
2023-04-09T07:04:55.141Z,66.70
2023-04-09T07:07:24.296Z,66.38
2023-04-09T07:09:53.685Z,65.56
2023-04-09T07:12:31.056Z,65.84
2023-04-09T07:15:02.248Z,65.68
2023-04-09T07:17:29.292Z,64.81
2023-04-09T07:19:56.013Z,64.39
2023-04-09T07:22:23.704Z,64.62
2023-04-09T07:24:54.392Z,65.24
2023-04-09T07:27:25.427Z,65.13
2023-04-09T07:29:55.894Z,63.78
2023-04-09T07:32:22.638Z,62.40
2023-04-09T07:34:51.694Z,62.37
2023-04-09T07:37:19.089Z,63.91
2023-04-09T07:39:45.779Z,63.94
2023-04-09T07:42:12.821Z,62.68
2023-04-09T07:44:40.020Z,62.12
2023-04-09T07:47:08.745Z,62.71
2023-04-09T07:49:37.201Z,57.76
2023-04-09T07:52:04.607Z,56.24
2023-04-09T07:54:34.645Z,56.42
2023-04-09T07:57:06.778Z,54.18
2023-04-09T07:59:34.792Z,54.67
2023-04-09T08:02:01.699Z,55.10
2023-04-09T08:04:28.677Z,53.04
2023-04-09T08:06:55.679Z,53.07
2023-04-09T08:09:22.374Z,51.75
2023-04-09T08:11:50.099Z,51.30
2023-04-09T08:14:17.834Z,51.33
2023-04-09T08:16:46.520Z,51.71
2023-04-09T08:19:14.963Z,50.23
2023-04-09T08:21:44.515Z,48.73
2023-04-09T08:24:12.193Z,48.59
2023-04-09T08:26:39.531Z,48.23
2023-04-09T08:29:07.069Z,48.68
2023-04-09T08:31:33.869Z,49.47
2023-04-09T08:34:00.713Z,47.97
2023-04-09T08:36:27.894Z,45.78
2023-04-09T08:38:56.273Z,46.76
2023-04-09T08:41:24.980Z,46.66
2023-04-09T08:43:58.303Z,47.48
2023-04-09T08:46:29.028Z,48.55
2023-04-09T08:48:56.646Z,47.31
2023-04-09T08:51:24.274Z,47.44
2023-04-09T08:54:04.418Z,47.94
2023-04-09T08:56:32.079Z,47.47
2023-04-09T08:58:58.984Z,48.82
2023-04-09T09:01:33.444Z,48.32
2023-04-09T09:04:08.022Z,49.90
2023-04-09T09:06:40.025Z,49.10
2023-04-09T09:09:11.172Z,49.51
2023-04-09T09:11:39.426Z,45.34
2023-04-09T09:14:13.724Z,47.86
2023-04-09T09:16:44.789Z,47.68
2023-04-09T09:19:26.616Z,46.05
2023-04-09T09:22:04.209Z,45.02
2023-04-09T09:24:32.710Z,45.36
2023-04-09T09:26:59.674Z,43.90
2023-04-09T09:29:27.100Z,44.30
2023-04-09T09:31:54.938Z,44.33
2023-04-09T09:34:23.816Z,44.27
2023-04-09T09:36:50.687Z,43.93
2023-04-09T09:39:18.095Z,45.15
2023-04-09T09:41:46.066Z,43.32
2023-04-09T09:44:14.114Z,44.55
2023-04-09T09:46:42.637Z,44.22
2023-04-09T09:49:09.781Z,44.05
2023-04-09T09:51:37.966Z,43.31
2023-04-09T09:54:08.026Z,43.91
2023-04-09T09:56:39.699Z,43.56
2023-04-09T09:59:18.568Z,43.64
2023-04-09T10:01:46.385Z,43.68
2023-04-09T10:04:14.917Z,41.73
2023-04-09T10:06:44.167Z,40.74
2023-04-09T10:09:10.930Z,40.75
2023-04-09T10:11:38.124Z,38.65
2023-04-09T10:14:05.569Z,38.18
2023-04-09T10:16:33.143Z,37.55
2023-04-09T10:19:00.596Z,37.59
2023-04-09T10:21:39.231Z,37.85
2023-04-09T10:24:08.062Z,39.27
2023-04-09T10:26:35.764Z,38.55
2023-04-09T10:29:14.845Z,37.84
2023-04-09T10:31:51.642Z,38.27
2023-04-09T10:34:22.532Z,37.99
2023-04-09T10:36:55.683Z,38.32
2023-04-09T10:39:27.100Z,37.50
2023-04-09T10:41:54.731Z,38.46
2023-04-09T10:44:23.047Z,36.75
2023-04-09T10:46:50.567Z,38.07
2023-04-09T10:49:19.373Z,38.38
2023-04-09T10:52:16.016Z,38.62
2023-04-09T10:54:45.576Z,39.50
2023-04-09T10:57:19.152Z,39.17
2023-04-09T10:59:48.428Z,40.19
2023-04-09T11:02:38.535Z,39.96
2023-04-09T11:05:17.739Z,38.76
2023-04-09T11:07:47.516Z,37.15
2023-04-09T11:10:14.250Z,36.42
2023-04-09T11:12:41.376Z,36.72
2023-04-09T11:15:19.024Z,37.78
2023-04-09T11:17:49.433Z,34.84
2023-04-09T11:20:20.954Z,34.28
2023-04-09T11:22:49.529Z,31.18
2023-04-09T11:25:22.845Z,29.70
2023-04-09T11:27:49.646Z,28.09
2023-04-09T11:30:16.498Z,28.19
2023-04-09T11:32:43.233Z,29.44
2023-04-09T11:35:13.614Z,31.77
2023-04-09T11:37:41.755Z,33.15
2023-04-09T11:40:15.859Z,34.55
2023-04-09T11:42:43.588Z,33.78
2023-04-09T11:45:11.621Z,32.74
2023-04-09T11:47:41.826Z,33.39
2023-04-09T11:50:09.888Z,33.17
2023-04-09T11:52:36.697Z,32.38
2023-04-09T11:55:04.833Z,33.34
2023-04-09T11:57:47.876Z,33.30
2023-04-09T12:00:18.274Z,31.24
2023-04-09T12:02:47.561Z,33.78
2023-04-09T12:05:23.013Z,34.29
2023-04-09T12:07:56.291Z,33.77
2023-04-09T12:10:30.935Z,33.47
2023-04-09T12:13:06.582Z,35.41
2023-04-09T12:15:35.294Z,34.94
2023-04-09T12:18:02.545Z,35.99
2023-04-09T12:20:30.930Z,36.25
2023-04-09T12:22:58.567Z,36.04
2023-04-09T12:25:25.419Z,36.44
2023-04-09T12:27:52.114Z,36.33
2023-04-09T12:30:18.882Z,35.28
2023-04-09T12:32:46.538Z,36.48
2023-04-09T12:35:14.160Z,36.28
2023-04-09T12:37:42.431Z,37.35
2023-04-09T12:40:09.860Z,36.17
2023-04-09T12:42:36.611Z,36.13
2023-04-09T12:45:03.501Z,35.19
2023-04-09T12:47:30.294Z,34.75
2023-04-09T12:49:57.042Z,34.79
2023-04-09T12:52:24.866Z,35.53
2023-04-09T12:54:52.501Z,34.40
2023-04-09T12:57:19.251Z,33.86
2023-04-09T12:59:45.921Z,33.54
2023-04-09T13:02:12.788Z,33.39
2023-04-09T13:04:39.786Z,34.66
2023-04-09T13:07:06.905Z,35.16
2023-04-09T13:09:34.263Z,36.14
2023-04-09T13:12:01.827Z,35.28
2023-04-09T13:14:28.506Z,36.14
2023-04-09T13:16:55.290Z,35.85
2023-04-09T13:19:22.030Z,34.17
2023-04-09T13:21:48.719Z,33.88
2023-04-09T13:24:15.690Z,34.94
2023-04-09T13:26:42.579Z,35.59
2023-04-09T13:29:09.282Z,36.07
2023-04-09T13:31:37.382Z,37.23
2023-04-09T13:34:04.137Z,35.97
2023-04-09T13:36:31.771Z,35.88
2023-04-09T13:39:04.485Z,37.73
2023-04-09T13:41:34.520Z,36.70
2023-04-09T13:44:01.619Z,34.77
2023-04-09T13:46:28.525Z,36.28
2023-04-09T13:48:55.402Z,35.25
2023-04-09T13:51:23.178Z,35.80
2023-04-09T13:53:50.361Z,34.64
2023-04-09T13:56:17.117Z,35.05
2023-04-09T13:58:43.991Z,34.74
2023-04-09T14:01:11.695Z,33.46
2023-04-09T14:03:40.295Z,35.56
2023-04-09T14:06:08.684Z,36.12
2023-04-09T14:08:36.121Z,36.33
2023-04-09T14:11:03.249Z,36.41
2023-04-09T14:13:30.853Z,37.66
2023-04-09T14:15:59.277Z,35.64
2023-04-09T14:18:27.323Z,35.63
2023-04-09T14:20:53.998Z,37.17
2023-04-09T14:23:20.924Z,36.36
2023-04-09T14:25:47.867Z,37.43
2023-04-09T14:28:14.620Z,36.96
2023-04-09T14:30:41.392Z,37.38
2023-04-09T14:33:08.216Z,37.52
2023-04-09T14:35:35.129Z,36.47
2023-04-09T14:38:04.609Z,39.62
2023-04-09T14:40:32.119Z,40.65
2023-04-09T14:43:01.580Z,38.61
2023-04-09T14:45:31.353Z,39.29
2023-04-09T14:47:58.110Z,37.83
2023-04-09T14:50:24.864Z,38.39
2023-04-09T14:52:51.555Z,37.41
2023-04-09T14:55:18.640Z,36.58
2023-04-09T14:57:45.402Z,36.58
2023-04-09T15:00:12.850Z,35.37
2023-04-09T15:02:39.808Z,35.54
2023-04-09T15:05:07.586Z,36.17
2023-04-09T15:07:34.375Z,35.13
2023-04-09T15:10:01.284Z,34.22
2023-04-09T15:12:32.134Z,36.49
2023-04-09T15:14:59.186Z,35.14
2023-04-09T15:17:26.775Z,34.59
2023-04-09T15:19:54.144Z,35.94
2023-04-09T15:22:21.572Z,36.27
2023-04-09T15:24:48.284Z,33.89
2023-04-09T15:27:15.052Z,34.04
2023-04-09T15:29:41.804Z,34.04
2023-04-09T15:32:08.532Z,35.24
2023-04-09T15:34:35.284Z,35.71
2023-04-09T15:37:01.999Z,35.29
2023-04-09T15:39:28.960Z,38.39
2023-04-09T15:41:57.776Z,35.66
2023-04-09T15:44:24.970Z,36.68
2023-04-09T15:46:51.722Z,37.07
2023-04-09T15:49:19.764Z,38.47
2023-04-09T15:51:46.656Z,38.22
2023-04-09T15:54:13.630Z,38.85
2023-04-09T15:56:40.551Z,37.91
2023-04-09T15:59:08.566Z,38.64
2023-04-09T16:01:36.453Z,37.98
2023-04-09T16:04:04.649Z,39.73
2023-04-09T16:06:31.761Z,38.22
2023-04-09T16:08:58.665Z,40.08
2023-04-09T16:11:26.132Z,38.79
2023-04-09T16:13:53.360Z,38.97
2023-04-09T16:16:20.905Z,38.14
2023-04-09T16:18:47.813Z,38.39
2023-04-09T16:21:15.033Z,37.62
2023-04-09T16:23:41.734Z,38.43
2023-04-09T16:26:08.427Z,37.44
2023-04-09T16:28:35.106Z,37.84
2023-04-09T16:31:02.068Z,39.01
2023-04-09T16:33:28.803Z,37.73
2023-04-09T16:35:55.556Z,37.14
2023-04-09T16:38:23.814Z,38.49
2023-04-09T16:40:50.773Z,39.54
2023-04-09T16:43:17.480Z,38.57
2023-04-09T16:45:44.463Z,36.29
2023-04-09T16:48:12.602Z,37.07
2023-04-09T16:50:40.458Z,37.72
2023-04-09T16:53:07.972Z,37.82
2023-04-09T16:55:35.343Z,37.76
2023-04-09T16:58:02.146Z,38.16
2023-04-09T17:00:28.958Z,39.13
2023-04-09T17:02:57.952Z,37.78
2023-04-09T17:05:25.163Z,38.99
2023-04-09T17:07:53.692Z,37.76
2023-04-09T17:10:20.928Z,38.07
2023-04-09T17:12:48.246Z,38.49
2023-04-09T17:15:14.977Z,39.39
2023-04-09T17:17:43.725Z,39.34
2023-04-09T17:20:11.521Z,38.89
2023-04-09T17:22:39.412Z,39.08
2023-04-09T17:25:06.600Z,38.80
2023-04-09T17:27:33.491Z,40.01
2023-04-09T17:30:00.479Z,39.47
2023-04-09T17:32:27.812Z,40.40
2023-04-09T17:34:54.597Z,41.14
2023-04-09T17:37:21.416Z,40.78
2023-04-09T17:39:48.203Z,42.52
2023-04-09T17:42:15.050Z,40.72
2023-04-09T17:44:43.913Z,43.45
2023-04-09T17:47:12.441Z,41.20
2023-04-09T17:49:39.691Z,41.54
2023-04-09T17:52:06.630Z,41.19
2023-04-09T17:54:36.975Z,42.63
2023-04-09T17:57:04.758Z,42.24
2023-04-09T17:59:32.712Z,43.29
2023-04-09T18:01:59.566Z,42.10
2023-04-09T18:04:27.234Z,42.61
2023-04-09T18:06:54.829Z,43.92
2023-04-09T18:09:21.641Z,42.39
2023-04-09T18:11:49.162Z,43.31
2023-04-09T18:14:15.941Z,44.09
2023-04-09T18:16:43.083Z,43.72
2023-04-09T18:19:11.963Z,42.96
2023-04-09T18:21:38.873Z,42.95
2023-04-09T18:24:05.823Z,43.02
2023-04-09T18:26:33.975Z,45.00
2023-04-09T18:29:01.373Z,45.09
2023-04-09T18:31:28.823Z,44.93
2023-04-09T18:33:56.250Z,45.05
2023-04-09T18:36:23.478Z,46.17
2023-04-09T18:38:50.164Z,45.56
2023-04-09T18:41:23.801Z,44.34
2023-04-09T18:43:50.627Z,45.32
2023-04-09T18:46:18.350Z,47.18
2023-04-09T18:48:47.160Z,47.41
2023-04-09T18:51:14.677Z,48.22
2023-04-09T18:53:42.231Z,47.46
2023-04-09T18:56:09.197Z,48.83
2023-04-09T18:58:36.463Z,48.68
2023-04-09T19:01:11.352Z,48.82
2023-04-09T19:03:39.047Z,48.40
2023-04-09T19:06:18.205Z,47.87
2023-04-09T19:08:45.755Z,48.02
2023-04-09T19:11:13.034Z,47.40
2023-04-09T19:13:40.080Z,47.94
2023-04-09T19:16:09.379Z,46.53
2023-04-09T19:18:37.358Z,47.66
2023-04-09T19:21:05.219Z,48.81
2023-04-09T19:23:34.213Z,47.91
2023-04-09T19:26:01.974Z,48.06
2023-04-09T19:28:29.104Z,47.16
2023-04-09T19:30:55.889Z,48.45
2023-04-09T19:33:27.098Z,47.66
2023-04-09T19:35:55.492Z,47.68
2023-04-09T19:38:22.542Z,48.74
2023-04-09T19:40:49.615Z,47.88
2023-04-09T19:43:16.643Z,49.91
2023-04-09T19:45:43.704Z,48.80
2023-04-09T19:48:10.733Z,49.79
2023-04-09T19:50:38.510Z,48.90
2023-04-09T19:53:06.209Z,48.48
2023-04-09T19:55:35.983Z,49.19
2023-04-09T19:58:03.398Z,48.58
2023-04-09T20:00:30.747Z,50.08
2023-04-09T20:02:57.910Z,48.28
2023-04-09T20:05:24.799Z,48.88
2023-04-09T20:07:52.898Z,48.69
2023-04-09T20:10:20.024Z,50.55
2023-04-09T20:12:48.334Z,51.24
2023-04-09T20:15:15.869Z,49.47
2023-04-09T20:17:42.891Z,50.13
2023-04-09T20:20:09.863Z,50.74
2023-04-09T20:22:36.640Z,49.93
2023-04-09T20:25:03.736Z,50.34
2023-04-09T20:27:31.500Z,49.26
2023-04-09T20:29:58.224Z,50.54
2023-04-09T20:32:25.032Z,51.12
2023-04-09T20:34:52.003Z,51.61
2023-04-09T20:37:18.730Z,51.92
2023-04-09T20:39:45.657Z,52.34
2023-04-09T20:42:12.373Z,52.99
2023-04-09T20:44:39.255Z,53.16
2023-04-09T20:47:07.345Z,53.74
2023-04-09T20:49:34.126Z,53.60
2023-04-09T20:52:00.915Z,53.48
2023-04-09T20:54:28.017Z,54.13
2023-04-09T20:56:55.259Z,54.05
2023-04-09T20:59:22.055Z,54.16
2023-04-09T21:01:49.143Z,54.31
2023-04-09T21:04:16.229Z,54.99
2023-04-09T21:06:43.183Z,54.23
2023-04-09T21:09:09.888Z,55.18
2023-04-09T21:11:36.647Z,55.31
2023-04-09T21:14:04.252Z,55.31
2023-04-09T21:16:31.497Z,55.47
2023-04-09T21:19:07.090Z,55.65
2023-04-09T21:21:34.659Z,54.64
2023-04-09T21:24:01.552Z,55.30
2023-04-09T21:26:35.828Z,55.61
2023-04-09T21:29:11.947Z,55.48
2023-04-09T21:31:41.589Z,54.76
2023-04-09T21:34:08.344Z,55.41
2023-04-09T21:36:37.813Z,55.27
2023-04-09T21:39:04.603Z,55.35
2023-04-09T21:41:31.402Z,56.22
2023-04-09T21:43:58.136Z,55.90
2023-04-09T21:46:25.303Z,56.49
2023-04-09T21:48:52.324Z,56.42
2023-04-09T21:51:19.311Z,56.71
2023-04-09T21:53:48.046Z,57.52
2023-04-09T21:56:14.818Z,57.23
2023-04-09T21:58:41.537Z,56.83
2023-04-09T22:01:13.111Z,57.89
2023-04-09T22:03:45.860Z,57.06
2023-04-09T22:06:12.549Z,57.44
2023-04-09T22:08:52.859Z,57.00
2023-04-09T22:11:28.156Z,57.51
2023-04-09T22:13:56.732Z,57.23
2023-04-09T22:16:23.901Z,57.45
2023-04-09T22:18:51.700Z,57.85
2023-04-09T22:21:18.721Z,57.79
2023-04-09T22:23:45.511Z,58.05
2023-04-09T22:26:12.311Z,58.31
2023-04-09T22:28:39.477Z,58.60
2023-04-09T22:31:06.615Z,58.95
2023-04-09T22:33:33.681Z,58.03
2023-04-09T22:36:03.542Z,59.31
2023-04-09T22:38:30.308Z,58.38
2023-04-09T22:40:57.064Z,58.89
2023-04-09T22:43:23.829Z,59.53
2023-04-09T22:45:52.235Z,59.09
2023-04-09T22:48:19.553Z,59.83
2023-04-09T22:50:46.624Z,59.57
2023-04-09T22:53:18.777Z,60.12
2023-04-09T22:55:47.662Z,59.73
2023-04-09T22:58:14.754Z,60.06
2023-04-09T23:00:41.512Z,60.37
2023-04-09T23:03:08.533Z,60.71
2023-04-09T23:05:35.640Z,61.24
2023-04-09T23:08:02.480Z,61.26
2023-04-09T23:10:29.239Z,60.90
2023-04-09T23:12:57.336Z,61.01
2023-04-09T23:15:24.035Z,60.98
2023-04-09T23:17:51.990Z,60.71
2023-04-09T23:20:18.867Z,61.23
2023-04-09T23:22:46.650Z,60.73
2023-04-09T23:25:14.965Z,60.33
2023-04-09T23:27:41.778Z,60.75
2023-04-09T23:30:09.523Z,60.23
2023-04-09T23:32:36.528Z,61.08
2023-04-09T23:35:04.564Z,60.40
2023-04-09T23:37:31.304Z,60.02
2023-04-09T23:39:58.073Z,61.41
2023-04-09T23:42:26.326Z,60.90
2023-04-09T23:44:53.041Z,61.01
2023-04-09T23:47:19.770Z,60.94
2023-04-09T23:49:46.853Z,61.26
2023-04-09T23:52:13.817Z,61.28
2023-04-09T23:54:49.065Z,61.23
2023-04-09T23:57:15.810Z,61.55
2023-04-09T23:59:42.476Z,61.58
